sensor_id;sensor_type;location;lat;lon;timestamp;temperature;humidity
15364;DHT22;7781;49.690;6.472;2022-09-09T00:00:06;14.50;99.90
15364;DHT22;7781;49.690;6.472;2022-09-09T00:02:36;14.60;99.90
15364;DHT22;7781;49.690;6.472;2022-09-09T00:05:15;14.60;99.90
15364;DHT22;7781;49.690;6.472;2022-09-09T00:07:48;14.60;99.90
15364;DHT22;7781;49.690;6.472;2022-09-09T00:10:22;14.60;99.90
15364;DHT22;7781;49.690;6.472;2022-09-09T00:12:57;14.60;99.90
15364;DHT22;7781;49.690;6.472;2022-09-09T00:15:34;14.70;99.90
15364;DHT22;7781;49.690;6.472;2022-09-09T00:18:16;14.70;99.90
15364;DHT22;7781;49.690;6.472;2022-09-09T00:20:48;14.90;99.90
15364;DHT22;7781;49.690;6.472;2022-09-09T00:23:24;14.90;99.90
15364;DHT22;7781;49.690;6.472;2022-09-09T00:26:00;15.10;99.90
15364;DHT22;7781;49.690;6.472;2022-09-09T00:28:32;15.20;99.90
15364;DHT22;7781;49.690;6.472;2022-09-09T00:31:11;15.30;99.90
15364;DHT22;7781;49.690;6.472;2022-09-09T00:33:43;15.50;99.90
15364;DHT22;7781;49.690;6.472;2022-09-09T00:36:14;15.60;99.90
15364;DHT22;7781;49.690;6.472;2022-09-09T00:38:46;15.70;99.90
15364;DHT22;7781;49.690;6.472;2022-09-09T00:41:21;15.70;99.90
15364;DHT22;7781;49.690;6.472;2022-09-09T00:43:56;15.80;99.90
15364;DHT22;7781;49.690;6.472;2022-09-09T00:46:46;15.90;99.90
15364;DHT22;7781;49.690;6.472;2022-09-09T00:49:27;16.00;99.90
15364;DHT22;7781;49.690;6.472;2022-09-09T00:52:08;16.00;99.90
15364;DHT22;7781;49.690;6.472;2022-09-09T00:54:46;15.90;99.90
15364;DHT22;7781;49.690;6.472;2022-09-09T00:57:25;15.90;99.90
15364;DHT22;7781;49.690;6.472;2022-09-09T00:59:59;15.90;99.90
15364;DHT22;7781;49.690;6.472;2022-09-09T01:02:38;15.90;99.90
15364;DHT22;7781;49.690;6.472;2022-09-09T01:05:15;16.00;99.90
15364;DHT22;7781;49.690;6.472;2022-09-09T01:07:48;16.00;99.90
15364;DHT22;7781;49.690;6.472;2022-09-09T01:10:29;16.00;99.90
15364;DHT22;7781;49.690;6.472;2022-09-09T01:13:00;16.00;99.90
15364;DHT22;7781;49.690;6.472;2022-09-09T01:15:32;16.00;99.90
15364;DHT22;7781;49.690;6.472;2022-09-09T01:18:05;16.00;99.90
15364;DHT22;7781;49.690;6.472;2022-09-09T01:20:45;16.00;99.90
15364;DHT22;7781;49.690;6.472;2022-09-09T01:23:32;16.00;99.90
15364;DHT22;7781;49.690;6.472;2022-09-09T01:26:26;16.00;99.90
15364;DHT22;7781;49.690;6.472;2022-09-09T01:28:58;15.90;99.90
15364;DHT22;7781;49.690;6.472;2022-09-09T01:31:36;15.90;99.90
15364;DHT22;7781;49.690;6.472;2022-09-09T01:34:10;15.90;99.90
15364;DHT22;7781;49.690;6.472;2022-09-09T01:36:42;15.90;99.90
15364;DHT22;7781;49.690;6.472;2022-09-09T01:39:11;16.00;99.90
15364;DHT22;7781;49.690;6.472;2022-09-09T01:41:42;15.90;99.90
15364;DHT22;7781;49.690;6.472;2022-09-09T01:44:13;15.90;99.90
15364;DHT22;7781;49.690;6.472;2022-09-09T01:46:44;15.90;99.90
15364;DHT22;7781;49.690;6.472;2022-09-09T01:49:16;15.90;99.90
15364;DHT22;7781;49.690;6.472;2022-09-09T01:51:49;15.90;99.90
15364;DHT22;7781;49.690;6.472;2022-09-09T01:54:21;15.90;99.90
15364;DHT22;7781;49.690;6.472;2022-09-09T01:56:59;15.90;99.90
15364;DHT22;7781;49.690;6.472;2022-09-09T01:59:48;16.00;99.90
15364;DHT22;7781;49.690;6.472;2022-09-09T02:02:19;15.90;99.90
15364;DHT22;7781;49.690;6.472;2022-09-09T02:05:09;15.90;99.90
15364;DHT22;7781;49.690;6.472;2022-09-09T02:07:41;15.90;99.90
15364;DHT22;7781;49.690;6.472;2022-09-09T02:10:25;15.90;99.90
15364;DHT22;7781;49.690;6.472;2022-09-09T02:13:11;15.80;99.90
15364;DHT22;7781;49.690;6.472;2022-09-09T02:15:45;15.90;99.90
15364;DHT22;7781;49.690;6.472;2022-09-09T02:18:20;15.90;99.90
15364;DHT22;7781;49.690;6.472;2022-09-09T02:20:51;15.90;99.90
15364;DHT22;7781;49.690;6.472;2022-09-09T02:23:20;15.90;99.90
15364;DHT22;7781;49.690;6.472;2022-09-09T02:25:54;15.90;99.90
15364;DHT22;7781;49.690;6.472;2022-09-09T02:28:28;15.90;99.90
15364;DHT22;7781;49.690;6.472;2022-09-09T02:30:57;15.90;99.90
15364;DHT22;7781;49.690;6.472;2022-09-09T02:33:35;15.90;99.90
15364;DHT22;7781;49.690;6.472;2022-09-09T02:36:06;16.00;99.90
15364;DHT22;7781;49.690;6.472;2022-09-09T02:38:38;16.00;99.90
15364;DHT22;7781;49.690;6.472;2022-09-09T02:41:12;16.00;99.90
15364;DHT22;7781;49.690;6.472;2022-09-09T02:43:41;16.00;99.90
15364;DHT22;7781;49.690;6.472;2022-09-09T02:46:25;16.00;99.90
15364;DHT22;7781;49.690;6.472;2022-09-09T02:49:00;16.00;99.90
15364;DHT22;7781;49.690;6.472;2022-09-09T02:51:40;16.00;99.90
15364;DHT22;7781;49.690;6.472;2022-09-09T02:54:19;16.00;99.90
15364;DHT22;7781;49.690;6.472;2022-09-09T02:56:52;16.00;99.90
15364;DHT22;7781;49.690;6.472;2022-09-09T02:59:27;16.00;99.90
15364;DHT22;7781;49.690;6.472;2022-09-09T03:01:56;15.90;99.90
15364;DHT22;7781;49.690;6.472;2022-09-09T03:04:24;16.00;99.90
15364;DHT22;7781;49.690;6.472;2022-09-09T03:06:52;16.00;99.90
15364;DHT22;7781;49.690;6.472;2022-09-09T03:09:21;16.00;99.90
15364;DHT22;7781;49.690;6.472;2022-09-09T03:11:49;16.00;99.90
15364;DHT22;7781;49.690;6.472;2022-09-09T03:14:18;16.00;99.90
15364;DHT22;7781;49.690;6.472;2022-09-09T03:16:53;16.10;99.90
15364;DHT22;7781;49.690;6.472;2022-09-09T03:19:21;16.10;99.90
15364;DHT22;7781;49.690;6.472;2022-09-09T03:21:50;16.10;99.90
15364;DHT22;7781;49.690;6.472;2022-09-09T03:24:18;16.00;99.90
15364;DHT22;7781;49.690;6.472;2022-09-09T03:26:46;16.00;99.90
15364;DHT22;7781;49.690;6.472;2022-09-09T03:29:17;16.00;99.90
15364;DHT22;7781;49.690;6.472;2022-09-09T03:31:45;16.00;99.90
15364;DHT22;7781;49.690;6.472;2022-09-09T03:34:15;16.00;99.90
15364;DHT22;7781;49.690;6.472;2022-09-09T03:36:43;16.00;99.90
15364;DHT22;7781;49.690;6.472;2022-09-09T03:39:11;16.00;99.90
15364;DHT22;7781;49.690;6.472;2022-09-09T03:41:42;16.00;99.90
15364;DHT22;7781;49.690;6.472;2022-09-09T03:44:15;16.00;99.90
15364;DHT22;7781;49.690;6.472;2022-09-09T03:46:43;15.90;99.90
15364;DHT22;7781;49.690;6.472;2022-09-09T03:49:11;15.80;99.90
15364;DHT22;7781;49.690;6.472;2022-09-09T03:51:41;15.80;99.90
15364;DHT22;7781;49.690;6.472;2022-09-09T03:54:12;15.80;99.90
15364;DHT22;7781;49.690;6.472;2022-09-09T03:56:40;15.80;99.90
15364;DHT22;7781;49.690;6.472;2022-09-09T03:59:11;15.80;99.90
15364;DHT22;7781;49.690;6.472;2022-09-09T04:01:41;15.80;99.90
15364;DHT22;7781;49.690;6.472;2022-09-09T04:04:09;15.80;99.90
15364;DHT22;7781;49.690;6.472;2022-09-09T04:06:39;15.90;99.90
15364;DHT22;7781;49.690;6.472;2022-09-09T04:09:08;15.90;99.90
15364;DHT22;7781;49.690;6.472;2022-09-09T04:11:36;15.90;99.90
15364;DHT22;7781;49.690;6.472;2022-09-09T04:14:04;15.90;99.90
15364;DHT22;7781;49.690;6.472;2022-09-09T04:16:34;15.90;99.90
15364;DHT22;7781;49.690;6.472;2022-09-09T04:19:05;15.90;99.90
15364;DHT22;7781;49.690;6.472;2022-09-09T04:21:33;15.80;99.90
15364;DHT22;7781;49.690;6.472;2022-09-09T04:24:02;15.80;99.90
15364;DHT22;7781;49.690;6.472;2022-09-09T04:26:31;15.80;99.90
15364;DHT22;7781;49.690;6.472;2022-09-09T04:29:00;15.90;99.90
15364;DHT22;7781;49.690;6.472;2022-09-09T04:31:28;15.80;99.90
15364;DHT22;7781;49.690;6.472;2022-09-09T04:33:56;15.80;99.90
15364;DHT22;7781;49.690;6.472;2022-09-09T04:36:25;15.80;99.90
15364;DHT22;7781;49.690;6.472;2022-09-09T04:38:58;15.80;99.90
15364;DHT22;7781;49.690;6.472;2022-09-09T04:41:26;15.80;99.90
15364;DHT22;7781;49.690;6.472;2022-09-09T04:43:56;15.70;99.90
15364;DHT22;7781;49.690;6.472;2022-09-09T04:46:24;15.70;99.90
15364;DHT22;7781;49.690;6.472;2022-09-09T04:48:52;15.70;99.90
15364;DHT22;7781;49.690;6.472;2022-09-09T04:51:24;15.70;99.90
15364;DHT22;7781;49.690;6.472;2022-09-09T04:53:53;15.70;99.90
15364;DHT22;7781;49.690;6.472;2022-09-09T04:56:21;15.70;99.90
15364;DHT22;7781;49.690;6.472;2022-09-09T04:58:52;15.70;99.90
15364;DHT22;7781;49.690;6.472;2022-09-09T05:01:25;15.70;99.90
15364;DHT22;7781;49.690;6.472;2022-09-09T05:04:00;15.70;99.90
15364;DHT22;7781;49.690;6.472;2022-09-09T05:06:29;15.70;99.90
15364;DHT22;7781;49.690;6.472;2022-09-09T05:08:59;15.70;99.90
15364;DHT22;7781;49.690;6.472;2022-09-09T05:11:30;15.70;99.90
15364;DHT22;7781;49.690;6.472;2022-09-09T05:14:37;15.70;99.90
15364;DHT22;7781;49.690;6.472;2022-09-09T05:17:08;15.70;99.90
15364;DHT22;7781;49.690;6.472;2022-09-09T05:19:38;15.70;99.90
15364;DHT22;7781;49.690;6.472;2022-09-09T05:22:06;15.70;99.90
15364;DHT22;7781;49.690;6.472;2022-09-09T05:24:41;15.70;99.90
15364;DHT22;7781;49.690;6.472;2022-09-09T05:27:09;15.70;99.90
15364;DHT22;7781;49.690;6.472;2022-09-09T05:29:39;15.80;99.90
15364;DHT22;7781;49.690;6.472;2022-09-09T05:32:11;15.80;99.90
15364;DHT22;7781;49.690;6.472;2022-09-09T05:34:43;15.80;99.90
15364;DHT22;7781;49.690;6.472;2022-09-09T05:37:11;15.80;99.90
15364;DHT22;7781;49.690;6.472;2022-09-09T05:39:39;15.70;99.90
15364;DHT22;7781;49.690;6.472;2022-09-09T05:42:09;15.80;99.90
15364;DHT22;7781;49.690;6.472;2022-09-09T05:44:37;15.80;99.90
15364;DHT22;7781;49.690;6.472;2022-09-09T05:47:06;15.80;99.90
15364;DHT22;7781;49.690;6.472;2022-09-09T05:49:37;15.80;99.90
15364;DHT22;7781;49.690;6.472;2022-09-09T05:52:06;15.80;99.90
15364;DHT22;7781;49.690;6.472;2022-09-09T05:54:34;15.80;99.90
15364;DHT22;7781;49.690;6.472;2022-09-09T05:57:04;15.80;99.90
15364;DHT22;7781;49.690;6.472;2022-09-09T05:59:32;15.80;99.90
15364;DHT22;7781;49.690;6.472;2022-09-09T06:02:01;15.80;99.90
15364;DHT22;7781;49.690;6.472;2022-09-09T06:04:34;15.80;99.90
15364;DHT22;7781;49.690;6.472;2022-09-09T06:07:05;15.90;99.90
15364;DHT22;7781;49.690;6.472;2022-09-09T06:09:34;15.90;99.90
15364;DHT22;7781;49.690;6.472;2022-09-09T06:12:02;15.90;99.90
15364;DHT22;7781;49.690;6.472;2022-09-09T06:14:34;15.90;99.90
15364;DHT22;7781;49.690;6.472;2022-09-09T06:17:02;15.90;99.90
15364;DHT22;7781;49.690;6.472;2022-09-09T06:19:30;15.90;99.90
15364;DHT22;7781;49.690;6.472;2022-09-09T06:22:00;15.90;99.90
15364;DHT22;7781;49.690;6.472;2022-09-09T06:24:31;15.80;99.90
15364;DHT22;7781;49.690;6.472;2022-09-09T06:27:01;15.80;99.90
15364;DHT22;7781;49.690;6.472;2022-09-09T06:29:33;15.80;99.90
15364;DHT22;7781;49.690;6.472;2022-09-09T06:32:02;15.80;99.90
15364;DHT22;7781;49.690;6.472;2022-09-09T06:34:30;15.80;99.90
15364;DHT22;7781;49.690;6.472;2022-09-09T06:37:00;15.90;99.90
15364;DHT22;7781;49.690;6.472;2022-09-09T06:39:40;15.90;99.90
15364;DHT22;7781;49.690;6.472;2022-09-09T06:42:09;15.90;99.90
15364;DHT22;7781;49.690;6.472;2022-09-09T06:44:55;16.00;99.90
15364;DHT22;7781;49.690;6.472;2022-09-09T06:47:32;16.00;99.90
15364;DHT22;7781;49.690;6.472;2022-09-09T06:50:02;16.10;99.90
15364;DHT22;7781;49.690;6.472;2022-09-09T06:52:33;16.10;99.90
15364;DHT22;7781;49.690;6.472;2022-09-09T06:55:03;16.20;99.90
15364;DHT22;7781;49.690;6.472;2022-09-09T06:57:33;16.20;99.90
15364;DHT22;7781;49.690;6.472;2022-09-09T07:00:09;16.20;99.90
15364;DHT22;7781;49.690;6.472;2022-09-09T07:02:39;16.20;99.90
15364;DHT22;7781;49.690;6.472;2022-09-09T07:05:09;16.30;99.90
15364;DHT22;7781;49.690;6.472;2022-09-09T07:07:39;16.30;99.90
15364;DHT22;7781;49.690;6.472;2022-09-09T07:10:10;16.30;99.90
15364;DHT22;7781;49.690;6.472;2022-09-09T07:12:39;16.40;99.90
15364;DHT22;7781;49.690;6.472;2022-09-09T07:15:09;16.40;99.90
15364;DHT22;7781;49.690;6.472;2022-09-09T07:17:41;16.50;99.90
15364;DHT22;7781;49.690;6.472;2022-09-09T07:20:09;16.60;99.90
15364;DHT22;7781;49.690;6.472;2022-09-09T07:22:38;16.70;99.90
15364;DHT22;7781;49.690;6.472;2022-09-09T07:25:07;16.80;99.90
15364;DHT22;7781;49.690;6.472;2022-09-09T07:27:37;16.80;99.90
15364;DHT22;7781;49.690;6.472;2022-09-09T07:30:09;16.90;99.90
15364;DHT22;7781;49.690;6.472;2022-09-09T07:32:44;16.90;99.90
15364;DHT22;7781;49.690;6.472;2022-09-09T07:35:12;16.80;99.90
15364;DHT22;7781;49.690;6.472;2022-09-09T07:37:40;16.70;99.90
15364;DHT22;7781;49.690;6.472;2022-09-09T07:40:14;16.60;99.90
15364;DHT22;7781;49.690;6.472;2022-09-09T07:42:44;16.60;99.90
15364;DHT22;7781;49.690;6.472;2022-09-09T07:45:14;16.60;99.90
15364;DHT22;7781;49.690;6.472;2022-09-09T07:47:42;16.50;99.90
15364;DHT22;7781;49.690;6.472;2022-09-09T07:50:10;16.50;99.90
15364;DHT22;7781;49.690;6.472;2022-09-09T07:52:39;16.60;99.90
15364;DHT22;7781;49.690;6.472;2022-09-09T07:55:07;16.70;99.90
15364;DHT22;7781;49.690;6.472;2022-09-09T07:57:36;16.60;99.90
15364;DHT22;7781;49.690;6.472;2022-09-09T08:00:07;16.60;99.90
15364;DHT22;7781;49.690;6.472;2022-09-09T08:02:43;16.60;99.90
15364;DHT22;7781;49.690;6.472;2022-09-09T08:05:11;16.50;99.90
15364;DHT22;7781;49.690;6.472;2022-09-09T08:07:40;16.50;99.90
15364;DHT22;7781;49.690;6.472;2022-09-09T08:10:09;16.50;99.90
15364;DHT22;7781;49.690;6.472;2022-09-09T08:12:40;16.60;99.90
15364;DHT22;7781;49.690;6.472;2022-09-09T08:15:30;16.70;99.90
15364;DHT22;7781;49.690;6.472;2022-09-09T08:17:59;16.70;99.90
15364;DHT22;7781;49.690;6.472;2022-09-09T08:20:27;16.70;99.90
15364;DHT22;7781;49.690;6.472;2022-09-09T08:22:55;16.60;99.90
15364;DHT22;7781;49.690;6.472;2022-09-09T08:25:24;16.60;99.90
15364;DHT22;7781;49.690;6.472;2022-09-09T08:27:53;16.70;99.90
15364;DHT22;7781;49.690;6.472;2022-09-09T08:30:21;16.70;99.90
15364;DHT22;7781;49.690;6.472;2022-09-09T08:32:51;16.80;99.90
15364;DHT22;7781;49.690;6.472;2022-09-09T08:35:20;16.70;99.90
15364;DHT22;7781;49.690;6.472;2022-09-09T08:37:53;16.70;99.90
15364;DHT22;7781;49.690;6.472;2022-09-09T08:40:26;16.70;99.90
15364;DHT22;7781;49.690;6.472;2022-09-09T08:42:58;16.60;99.90
15364;DHT22;7781;49.690;6.472;2022-09-09T08:45:33;16.60;99.90
15364;DHT22;7781;49.690;6.472;2022-09-09T08:48:18;16.80;99.90
15364;DHT22;7781;49.690;6.472;2022-09-09T08:50:49;16.80;99.90
15364;DHT22;7781;49.690;6.472;2022-09-09T08:53:26;16.80;99.90
15364;DHT22;7781;49.690;6.472;2022-09-09T08:55:58;16.80;99.90
15364;DHT22;7781;49.690;6.472;2022-09-09T08:58:53;16.80;99.90
15364;DHT22;7781;49.690;6.472;2022-09-09T09:01:49;16.90;99.90
15364;DHT22;7781;49.690;6.472;2022-09-09T09:04:52;16.90;99.90
15364;DHT22;7781;49.690;6.472;2022-09-09T09:07:33;17.10;99.90
15364;DHT22;7781;49.690;6.472;2022-09-09T09:10:12;17.30;99.90
15364;DHT22;7781;49.690;6.472;2022-09-09T09:13:03;17.40;99.90
15364;DHT22;7781;49.690;6.472;2022-09-09T09:15:38;17.50;99.90
15364;DHT22;7781;49.690;6.472;2022-09-09T09:18:11;17.60;99.90
15364;DHT22;7781;49.690;6.472;2022-09-09T09:20:50;17.50;99.90
15364;DHT22;7781;49.690;6.472;2022-09-09T09:23:24;17.50;99.90
15364;DHT22;7781;49.690;6.472;2022-09-09T09:25:59;17.70;99.90
15364;DHT22;7781;49.690;6.472;2022-09-09T09:28:31;17.80;99.90
15364;DHT22;7781;49.690;6.472;2022-09-09T09:31:09;17.80;99.90
15364;DHT22;7781;49.690;6.472;2022-09-09T09:33:47;17.90;99.90
15364;DHT22;7781;49.690;6.472;2022-09-09T09:36:19;18.00;64.90
15364;DHT22;7781;49.690;6.472;2022-09-09T09:38:54;18.10;47.40
15364;DHT22;7781;49.690;6.472;2022-09-09T09:41:43;18.50;37.90
15364;DHT22;7781;49.690;6.472;2022-09-09T09:44:23;18.70;28.70
15364;DHT22;7781;49.690;6.472;2022-09-09T09:46:52;18.70;28.70
15364;DHT22;7781;49.690;6.472;2022-09-09T09:49:20;18.70;28.90
15364;DHT22;7781;49.690;6.472;2022-09-09T09:51:51;18.90;32.00
15364;DHT22;7781;49.690;6.472;2022-09-09T09:54:26;19.00;34.20
15364;DHT22;7781;49.690;6.472;2022-09-09T09:57:09;19.10;25.70
15364;DHT22;7781;49.690;6.472;2022-09-09T09:59:39;19.10;30.40
15364;DHT22;7781;49.690;6.472;2022-09-09T10:02:23;18.90;29.40
15364;DHT22;7781;49.690;6.472;2022-09-09T10:05:08;18.90;27.50
15364;DHT22;7781;49.690;6.472;2022-09-09T10:07:42;18.70;25.40
15364;DHT22;7781;49.690;6.472;2022-09-09T10:10:16;18.70;27.00
15364;DHT22;7781;49.690;6.472;2022-09-09T10:12:56;18.60;31.20
15364;DHT22;7781;49.690;6.472;2022-09-09T10:15:37;18.60;33.60
15364;DHT22;7781;49.690;6.472;2022-09-09T10:18:35;18.60;30.20
15364;DHT22;7781;49.690;6.472;2022-09-09T10:21:13;18.60;29.80
15364;DHT22;7781;49.690;6.472;2022-09-09T10:23:56;19.10;29.40
15364;DHT22;7781;49.690;6.472;2022-09-09T10:26:35;19.60;24.20
15364;DHT22;7781;49.690;6.472;2022-09-09T10:29:26;20.00;17.20
15364;DHT22;7781;49.690;6.472;2022-09-09T10:32:10;20.10;14.30
15364;DHT22;7781;49.690;6.472;2022-09-09T10:34:55;20.10;13.00
15364;DHT22;7781;49.690;6.472;2022-09-09T10:37:38;20.20;13.80
15364;DHT22;7781;49.690;6.472;2022-09-09T10:40:22;19.80;7.60
15364;DHT22;7781;49.690;6.472;2022-09-09T10:42:58;19.80;8.40
15364;DHT22;7781;49.690;6.472;2022-09-09T10:45:32;19.90;11.80
15364;DHT22;7781;49.690;6.472;2022-09-09T10:48:16;20.10;9.40
15364;DHT22;7781;49.690;6.472;2022-09-09T10:50:55;20.10;7.20
15364;DHT22;7781;49.690;6.472;2022-09-09T10:53:48;20.20;9.30
15364;DHT22;7781;49.690;6.472;2022-09-09T10:56:21;20.40;7.80
15364;DHT22;7781;49.690;6.472;2022-09-09T10:58:53;20.30;7.50
15364;DHT22;7781;49.690;6.472;2022-09-09T11:01:26;20.10;8.80
15364;DHT22;7781;49.690;6.472;2022-09-09T11:04:00;20.20;12.50
15364;DHT22;7781;49.690;6.472;2022-09-09T11:06:32;20.10;11.10
15364;DHT22;7781;49.690;6.472;2022-09-09T11:09:02;20.10;10.40
15364;DHT22;7781;49.690;6.472;2022-09-09T11:11:37;20.00;11.10
15364;DHT22;7781;49.690;6.472;2022-09-09T11:14:14;19.90;11.90
15364;DHT22;7781;49.690;6.472;2022-09-09T11:16:47;20.10;16.10
15364;DHT22;7781;49.690;6.472;2022-09-09T11:19:21;20.20;13.90
15364;DHT22;7781;49.690;6.472;2022-09-09T11:21:53;20.30;14.80
15364;DHT22;7781;49.690;6.472;2022-09-09T11:24:27;20.40;12.60
15364;DHT22;7781;49.690;6.472;2022-09-09T11:27:00;20.40;12.60
15364;DHT22;7781;49.690;6.472;2022-09-09T11:29:48;20.50;10.00
15364;DHT22;7781;49.690;6.472;2022-09-09T11:32:51;20.50;9.70
15364;DHT22;7781;49.690;6.472;2022-09-09T11:35:31;20.50;12.40
15364;DHT22;7781;49.690;6.472;2022-09-09T11:38:15;20.30;12.70
15364;DHT22;7781;49.690;6.472;2022-09-09T11:40:45;20.20;15.10
15364;DHT22;7781;49.690;6.472;2022-09-09T11:43:25;20.10;12.40
15364;DHT22;7781;49.690;6.472;2022-09-09T11:45:57;20.00;9.80
15364;DHT22;7781;49.690;6.472;2022-09-09T11:48:32;20.60;10.40
15364;DHT22;7781;49.690;6.472;2022-09-09T11:51:05;21.10;7.40
15364;DHT22;7781;49.690;6.472;2022-09-09T11:53:48;21.40;6.20
15364;DHT22;7781;49.690;6.472;2022-09-09T11:56:25;21.80;5.90
15364;DHT22;7781;49.690;6.472;2022-09-09T11:58:58;21.90;8.80
15364;DHT22;7781;49.690;6.472;2022-09-09T12:01:38;22.00;6.90
15364;DHT22;7781;49.690;6.472;2022-09-09T12:04:33;22.10;11.00
15364;DHT22;7781;49.690;6.472;2022-09-09T12:07:05;22.50;6.20
15364;DHT22;7781;49.690;6.472;2022-09-09T12:09:54;22.40;5.30
15364;DHT22;7781;49.690;6.472;2022-09-09T12:12:29;22.00;1.20
15364;DHT22;7781;49.690;6.472;2022-09-09T12:15:02;22.10;2.10
15364;DHT22;7781;49.690;6.472;2022-09-09T12:17:36;21.90;1.00
15364;DHT22;7781;49.690;6.472;2022-09-09T12:20:12;21.90;1.00
15364;DHT22;7781;49.690;6.472;2022-09-09T12:23:04;21.90;1.00
15364;DHT22;7781;49.690;6.472;2022-09-09T12:25:58;21.20;4.40
15364;DHT22;7781;49.690;6.472;2022-09-09T12:28:41;21.30;4.90
15364;DHT22;7781;49.690;6.472;2022-09-09T12:31:17;21.50;3.40
15364;DHT22;7781;49.690;6.472;2022-09-09T12:33:48;22.00;1.00
15364;DHT22;7781;49.690;6.472;2022-09-09T12:36:21;22.70;1.00
15364;DHT22;7781;49.690;6.472;2022-09-09T12:38:51;22.90;1.00
15364;DHT22;7781;49.690;6.472;2022-09-09T12:41:21;22.70;1.00
15364;DHT22;7781;49.690;6.472;2022-09-09T12:43:50;22.80;1.00
15364;DHT22;7781;49.690;6.472;2022-09-09T12:46:26;22.50;1.00
15364;DHT22;7781;49.690;6.472;2022-09-09T12:48:58;22.20;1.00
15364;DHT22;7781;49.690;6.472;2022-09-09T12:51:28;21.70;1.00
15364;DHT22;7781;49.690;6.472;2022-09-09T12:53:58;21.90;1.00
15364;DHT22;7781;49.690;6.472;2022-09-09T12:56:28;22.40;1.00
15364;DHT22;7781;49.690;6.472;2022-09-09T12:58:58;22.40;1.00
15364;DHT22;7781;49.690;6.472;2022-09-09T13:01:31;22.50;1.00
15364;DHT22;7781;49.690;6.472;2022-09-09T13:04:00;23.00;1.00
15364;DHT22;7781;49.690;6.472;2022-09-09T13:06:29;23.30;1.00
15364;DHT22;7781;49.690;6.472;2022-09-09T13:08:59;23.90;1.00
15364;DHT22;7781;49.690;6.472;2022-09-09T13:11:30;24.40;1.00
15364;DHT22;7781;49.690;6.472;2022-09-09T13:13:59;24.20;1.00
15364;DHT22;7781;49.690;6.472;2022-09-09T13:16:31;23.40;7.60
15364;DHT22;7781;49.690;6.472;2022-09-09T13:19:08;22.80;14.30
15364;DHT22;7781;49.690;6.472;2022-09-09T13:21:38;22.50;1.00
15364;DHT22;7781;49.690;6.472;2022-09-09T13:24:21;22.50;8.30
15364;DHT22;7781;49.690;6.472;2022-09-09T13:26:55;22.60;1.00
15364;DHT22;7781;49.690;6.472;2022-09-09T13:29:24;22.90;1.00
15364;DHT22;7781;49.690;6.472;2022-09-09T13:31:54;23.10;1.00
15364;DHT22;7781;49.690;6.472;2022-09-09T13:34:33;22.70;1.00
15364;DHT22;7781;49.690;6.472;2022-09-09T13:37:04;22.40;1.00
15364;DHT22;7781;49.690;6.472;2022-09-09T13:39:35;21.90;1.00
15364;DHT22;7781;49.690;6.472;2022-09-09T13:42:05;21.70;1.00
15364;DHT22;7781;49.690;6.472;2022-09-09T13:44:37;21.30;1.00
15364;DHT22;7781;49.690;6.472;2022-09-09T13:47:18;21.00;1.00
15364;DHT22;7781;49.690;6.472;2022-09-09T13:49:47;20.90;1.00
15364;DHT22;7781;49.690;6.472;2022-09-09T13:52:16;20.70;14.80
15364;DHT22;7781;49.690;6.472;2022-09-09T13:54:47;19.40;98.10
15364;DHT22;7781;49.690;6.472;2022-09-09T13:57:18;18.40;99.90
15364;DHT22;7781;49.690;6.472;2022-09-09T13:59:47;17.80;99.90
15364;DHT22;7781;49.690;6.472;2022-09-09T14:02:33;17.20;99.90
15364;DHT22;7781;49.690;6.472;2022-09-09T14:05:02;16.90;99.90
15364;DHT22;7781;49.690;6.472;2022-09-09T14:07:30;16.70;99.90
15364;DHT22;7781;49.690;6.472;2022-09-09T14:09:59;16.20;99.90
15364;DHT22;7781;49.690;6.472;2022-09-09T14:12:27;16.10;99.90
15364;DHT22;7781;49.690;6.472;2022-09-09T14:14:55;16.00;99.90
15364;DHT22;7781;49.690;6.472;2022-09-09T14:17:23;16.00;99.90
15364;DHT22;7781;49.690;6.472;2022-09-09T14:19:55;16.00;99.90
15364;DHT22;7781;49.690;6.472;2022-09-09T14:22:24;15.80;99.90
15364;DHT22;7781;49.690;6.472;2022-09-09T14:24:52;15.80;99.90
15364;DHT22;7781;49.690;6.472;2022-09-09T14:27:20;15.90;99.90
15364;DHT22;7781;49.690;6.472;2022-09-09T14:29:48;15.90;99.90
15364;DHT22;7781;49.690;6.472;2022-09-09T14:32:16;15.90;99.90
15364;DHT22;7781;49.690;6.472;2022-09-09T14:34:44;16.00;99.90
15364;DHT22;7781;49.690;6.472;2022-09-09T14:37:14;16.10;99.90
15364;DHT22;7781;49.690;6.472;2022-09-09T14:39:42;16.10;99.90
15364;DHT22;7781;49.690;6.472;2022-09-09T14:42:11;16.10;99.90
15364;DHT22;7781;49.690;6.472;2022-09-09T14:44:39;16.10;99.90
15364;DHT22;7781;49.690;6.472;2022-09-09T14:47:08;16.10;99.90
15364;DHT22;7781;49.690;6.472;2022-09-09T14:49:38;16.20;99.90
15364;DHT22;7781;49.690;6.472;2022-09-09T14:52:10;16.40;99.90
15364;DHT22;7781;49.690;6.472;2022-09-09T14:54:41;16.50;99.90
15364;DHT22;7781;49.690;6.472;2022-09-09T14:57:09;16.80;99.90
15364;DHT22;7781;49.690;6.472;2022-09-09T14:59:37;17.10;99.90
15364;DHT22;7781;49.690;6.472;2022-09-09T15:02:05;17.40;99.90
15364;DHT22;7781;49.690;6.472;2022-09-09T15:04:33;17.90;99.90
15364;DHT22;7781;49.690;6.472;2022-09-09T15:07:02;18.50;99.90
15364;DHT22;7781;49.690;6.472;2022-09-09T15:09:30;19.10;99.90
15364;DHT22;7781;49.690;6.472;2022-09-09T15:12:00;19.50;99.90
15364;DHT22;7781;49.690;6.472;2022-09-09T15:14:28;19.70;99.90
15364;DHT22;7781;49.690;6.472;2022-09-09T15:16:57;20.10;99.90
15364;DHT22;7781;49.690;6.472;2022-09-09T15:19:25;20.40;99.90
15364;DHT22;7781;49.690;6.472;2022-09-09T15:21:53;20.20;99.90
15364;DHT22;7781;49.690;6.472;2022-09-09T15:24:22;20.00;99.90
15364;DHT22;7781;49.690;6.472;2022-09-09T15:26:50;19.70;99.90
15364;DHT22;7781;49.690;6.472;2022-09-09T15:29:19;19.50;99.90
15364;DHT22;7781;49.690;6.472;2022-09-09T15:31:47;19.30;99.90
15364;DHT22;7781;49.690;6.472;2022-09-09T15:34:16;19.20;99.90
15364;DHT22;7781;49.690;6.472;2022-09-09T15:36:45;19.10;99.90
15364;DHT22;7781;49.690;6.472;2022-09-09T15:39:14;19.00;99.90
15364;DHT22;7781;49.690;6.472;2022-09-09T15:41:44;18.90;99.90
15364;DHT22;7781;49.690;6.472;2022-09-09T15:44:12;18.90;99.90
15364;DHT22;7781;49.690;6.472;2022-09-09T15:46:43;18.90;99.90
15364;DHT22;7781;49.690;6.472;2022-09-09T15:49:14;18.80;99.90
15364;DHT22;7781;49.690;6.472;2022-09-09T15:51:45;18.80;99.90
15364;DHT22;7781;49.690;6.472;2022-09-09T15:54:14;18.70;99.90
15364;DHT22;7781;49.690;6.472;2022-09-09T16:04:38;17.40;99.90
15364;DHT22;7781;49.690;6.472;2022-09-09T16:07:06;16.90;99.90
15364;DHT22;7781;49.690;6.472;2022-09-09T16:09:35;16.80;99.90
15364;DHT22;7781;49.690;6.472;2022-09-09T16:12:04;16.70;99.90
15364;DHT22;7781;49.690;6.472;2022-09-09T16:14:36;16.60;99.90
15364;DHT22;7781;49.690;6.472;2022-09-09T16:17:06;16.60;99.90
15364;DHT22;7781;49.690;6.472;2022-09-09T16:19:34;16.30;99.90
15364;DHT22;7781;49.690;6.472;2022-09-09T16:22:04;16.40;99.90
15364;DHT22;7781;49.690;6.472;2022-09-09T16:24:33;16.30;99.90
15364;DHT22;7781;49.690;6.472;2022-09-09T16:27:01;16.30;99.90
15364;DHT22;7781;49.690;6.472;2022-09-09T16:29:30;16.30;99.90
15364;DHT22;7781;49.690;6.472;2022-09-09T16:31:59;16.20;99.90